Time;durP1;ratioP1;P1;durP2;ratioP2;P2;SDS_P1;SDS_P2;PMS_P1;PMS_P2;Temp;Humidity;BMP_temperature;BMP_pressure;BME280_temperature;BME280_humidity;BME280_pressure;Samples;Min_cycle;Max_cycle;Signal;HPM_P1;HPM_P2
2022/11/18 00:00:54;;;;;;;22.23;7.72;;;;;;;6.51;100.00;99404.06;5054993;28;20078;-47
2022/11/18 00:03:19;;;;;;;24.52;7.63;;;;;;;6.45;100.00;99409.03;5055298;28;20041;-45
2022/11/18 00:05:55;;;;;;;22.90;7.93;;;;;;;6.42;100.00;99406.41;5054159;28;20029;-44
2022/11/18 00:08:21;;;;;;;20.27;7.07;;;;;;;6.43;100.00;99400.47;5055399;28;20139;-45
2022/11/18 00:10:47;;;;;;;24.63;7.85;;;;;;;6.42;100.00;99402.16;5054847;28;20491;-45
2022/11/18 00:16:01;;;;;;;20.23;7.70;;;;;;;6.44;100.00;99404.72;5054109;28;20095;-45
2022/11/18 00:18:26;;;;;;;25.65;8.10;;;;;;;6.47;100.00;99409.06;5054233;28;20447;-44
2022/11/18 00:20:52;;;;;;;20.75;7.47;;;;;;;6.42;100.00;99412.38;5054628;28;20029;-47
2022/11/18 00:23:17;;;;;;;21.42;7.60;;;;;;;6.46;100.00;99412.47;5055107;28;20033;-46
2022/11/18 00:25:43;;;;;;;27.63;8.02;;;;;;;6.44;100.00;99414.97;5053696;28;20025;-43
2022/11/18 00:28:08;;;;;;;20.75;8.13;;;;;;;6.43;100.00;99415.81;5054878;28;20050;-46
2022/11/18 00:30:33;;;;;;;22.30;7.60;;;;;;;6.44;100.00;99420.09;5054767;28;20432;-44
2022/11/18 00:32:58;;;;;;;18.85;7.60;;;;;;;6.36;100.00;99425.03;5053595;28;20036;-46
2022/11/18 00:35:24;;;;;;;22.13;7.80;;;;;;;6.35;100.00;99430.13;5054993;28;20075;-43
2022/11/18 00:37:49;;;;;;;23.67;8.05;;;;;;;6.35;100.00;99437.78;5054348;28;20036;-46
2022/11/18 00:40:14;;;;;;;26.02;8.02;;;;;;;6.39;100.00;99437.03;5053807;28;20036;-45
2022/11/18 00:42:52;;;;;;;25.85;8.70;;;;;;;6.42;100.00;99437.13;5054680;28;20048;-45
2022/11/18 00:45:19;;;;;;;21.83;7.75;;;;;;;6.48;100.00;99434.72;5054527;28;20052;-46
2022/11/18 00:47:44;;;;;;;22.77;7.78;;;;;;;6.54;100.00;99442.50;5053257;28;20032;-45
2022/11/18 00:50:10;;;;;;;26.80;8.30;;;;;;;6.54;100.00;99437.38;5054381;28;20033;-45
2022/11/18 00:52:36;;;;;;;20.10;8.00;;;;;;;6.54;100.00;99442.50;5054518;28;20025;-45
2022/11/18 00:55:01;;;;;;;19.95;7.43;;;;;;;6.61;100.00;99437.53;5053506;28;20031;-46
2022/11/18 00:57:26;;;;;;;22.95;7.82;;;;;;;6.61;100.00;99446.09;5054197;28;20045;-45
2022/11/18 00:59:51;;;;;;;27.80;7.60;;;;;;;6.63;100.00;99457.22;5053821;28;20033;-46
2022/11/18 01:02:17;;;;;;;24.48;8.02;;;;;;;6.65;100.00;99454.69;5053312;28;20033;-46
2022/11/18 01:04:42;;;;;;;20.88;7.13;;;;;;;6.66;100.00;99459.88;5054023;28;20477;-43
2022/11/18 01:07:07;;;;;;;21.45;7.85;;;;;;;6.70;100.00;99464.22;5054288;28;20111;-46
2022/11/18 01:09:33;;;;;;;25.75;8.07;;;;;;;6.75;100.00;99461.75;5053494;28;20096;-46
2022/11/18 01:14:42;;;;;;;34.92;8.18;;;;;;;6.77;100.00;99477.19;5053122;28;20150;-44
2022/11/18 01:17:07;;;;;;;29.38;7.90;;;;;;;6.78;100.00;99481.44;5054259;28;20072;-46
2022/11/18 01:19:33;;;;;;;20.88;7.88;;;;;;;6.74;100.00;99472.84;5053912;28;20049;-45
2022/11/18 01:22:01;;;;;;;23.27;7.75;;;;;;;6.75;100.00;99487.34;5052846;28;20498;-46
2022/11/18 01:24:28;;;;;;;21.38;7.72;;;;;;;6.73;100.00;99486.47;5053913;28;20025;-45
2022/11/18 01:26:53;;;;;;;27.42;8.13;;;;;;;6.70;100.00;99488.94;5053412;28;20025;-47
2022/11/18 01:29:18;;;;;;;26.63;7.63;;;;;;;6.72;100.00;99487.28;5052967;28;20036;-46
2022/11/18 01:31:44;;;;;;;20.20;7.20;;;;;;;6.75;100.00;99502.72;5053553;28;20491;-47
2022/11/18 01:34:09;;;;;;;23.10;7.43;;;;;;;6.73;100.00;99494.16;5053705;28;20029;-44
2022/11/18 01:36:34;;;;;;;20.70;7.50;;;;;;;6.74;100.00;99501.00;5052736;28;20029;-45
2022/11/18 01:38:59;;;;;;;19.17;7.68;;;;;;;6.70;100.00;99501.75;5053314;28;20036;-46
2022/11/18 01:41:26;;;;;;;25.95;8.23;;;;;;;6.68;100.00;99506.84;5053340;28;20024;-46
2022/11/18 01:43:54;;;;;;;21.58;8.07;;;;;;;6.70;100.00;99519.66;5052309;28;20040;-47
2022/11/18 01:46:21;;;;;;;28.27;9.60;;;;;;;6.71;100.00;99516.28;5053263;28;20376;-46
2022/11/18 01:48:52;;;;;;;25.08;8.43;;;;;;;6.71;100.00;99517.16;5053299;28;20024;-47
2022/11/18 01:51:23;;;;;;;19.92;7.93;;;;;;;6.66;100.00;99526.44;5052560;28;20448;-44
2022/11/18 01:53:52;;;;;;;21.95;8.40;;;;;;;6.69;100.00;99517.97;5053037;28;20027;-46
2022/11/18 01:56:24;;;;;;;22.45;9.00;;;;;;;6.67;100.00;99519.59;5053295;28;20467;-44
2022/11/18 01:59:00;;;;;;;22.92;8.52;;;;;;;6.67;100.00;99524.72;5051998;28;20132;-47
2022/11/18 02:01:25;;;;;;;23.00;8.48;;;;;;;6.66;100.00;99528.13;5053237;28;20075;-45
2022/11/18 02:03:52;;;;;;;23.50;7.78;;;;;;;6.65;100.00;99528.94;5051991;28;20060;-47
2022/11/18 02:06:18;;;;;;;22.23;8.10;;;;;;;6.65;100.00;99528.94;5053064;28;20028;-46
2022/11/18 02:08:44;;;;;;;24.98;8.68;;;;;;;6.67;100.00;99532.41;5052606;28;20464;-47
2022/11/18 02:11:49;;;;;;;17.63;8.18;;;;;;;6.68;100.00;99536.72;5052482;28;20038;-45
2022/11/18 02:13:59;;;;;;;26.27;8.50;;;;;;;6.73;100.00;99535.13;5052620;28;20036;-46
2022/11/18 02:16:39;;;;;;;24.48;8.27;;;;;;;6.71;100.00;99541.88;5053087;28;20036;-47
2022/11/18 02:19:33;;;;;;;22.83;8.10;;;;;;;6.76;100.00;99540.31;5051792;28;20029;-47
2022/11/18 02:22:14;;;;;;;19.05;8.35;;;;;;;6.74;100.00;99547.09;5052683;28;20025;-45
2022/11/18 02:24:41;;;;;;;28.05;9.52;;;;;;;6.77;100.00;99542.03;5052924;28;20057;-46
2022/11/18 02:27:17;;;;;;;23.42;8.13;;;;;;;6.78;100.00;99554.03;5052090;28;20025;-46
2022/11/18 02:29:51;;;;;;;20.10;8.25;;;;;;;6.80;100.00;99557.47;5052794;28;20029;-47
2022/11/18 02:32:25;;;;;;;22.20;8.07;;;;;;;6.79;100.00;99554.88;5052183;28;20025;-47
2022/11/18 02:34:50;;;;;;;18.23;8.07;;;;;;;6.85;100.00;99555.03;5052488;28;20021;-47
2022/11/18 02:37:26;;;;;;;23.53;8.07;;;;;;;6.85;100.00;99549.91;5052666;28;20028;-45
2022/11/18 02:40:04;;;;;;;19.70;7.72;;;;;;;6.87;100.00;99558.50;5053073;28;20287;-47
2022/11/18 02:42:31;;;;;;;19.20;8.05;;;;;;;6.89;100.00;99560.28;5056817;28;20111;-46
2022/11/18 02:45:09;;;;;;;24.45;8.50;;;;;;;6.88;100.00;99567.91;5056542;28;20477;-46
2022/11/18 02:47:36;;;;;;;20.83;7.97;;;;;;;6.90;100.00;99572.22;5056009;28;20381;-47
2022/11/18 02:50:07;;;;;;;21.83;7.43;;;;;;;6.94;100.00;99574.88;5056419;28;20025;-45
2022/11/18 02:52:34;;;;;;;25.75;8.02;;;;;;;6.98;100.00;99572.41;5055458;28;20025;-44
2022/11/18 02:55:01;;;;;;;19.85;7.28;;;;;;;7.00;100.00;99569.91;5055485;28;20384;-47
2022/11/18 02:57:30;;;;;;;22.70;8.30;;;;;;;7.05;100.00;99578.53;5056563;28;20072;-44
2022/11/18 02:59:55;;;;;;;22.20;7.28;;;;;;;7.03;100.00;99565.69;5056264;28;20096;-46
2022/11/18 03:02:21;;;;;;;21.65;7.75;;;;;;;7.07;100.00;99571.75;5055821;28;20040;-46
2022/11/18 03:04:48;;;;;;;23.77;8.55;;;;;;;7.11;100.00;99577.84;5056192;28;20024;-43
2022/11/18 03:07:18;;;;;;;21.30;7.93;;;;;;;7.14;100.00;99588.13;5055590;28;20028;-42
2022/11/18 03:09:48;;;;;;;21.15;8.65;;;;;;;7.21;100.00;99588.31;5056156;28;20024;-43
2022/11/18 03:12:31;;;;;;;27.13;9.70;;;;;;;7.20;100.00;99589.13;5056514;28;20033;-47
2022/11/18 03:15:24;;;;;;;20.63;8.40;;;;;;;7.27;100.00;99590.16;5055216;28;20025;-46
2022/11/18 03:18:08;;;;;;;24.35;8.38;;;;;;;7.28;100.00;99585.91;5055865;28;20379;-46
2022/11/18 03:20:37;;;;;;;21.95;8.63;;;;;;;7.31;100.00;99593.63;5056215;28;20090;-45
2022/11/18 03:23:11;;;;;;;25.42;8.82;;;;;;;7.34;100.00;99596.28;5055064;28;20017;-46
2022/11/18 03:25:47;;;;;;;19.00;7.90;;;;;;;7.36;100.00;99598.06;5056043;28;20129;-46
2022/11/18 03:28:34;;;;;;;21.95;7.85;;;;;;;7.38;100.00;99603.22;5055163;28;20543;-45
2022/11/18 03:31:22;;;;;;;22.10;7.90;;;;;;;7.42;100.00;99610.13;5055820;28;20380;-46
2022/11/18 03:34:13;;;;;;;23.58;7.60;;;;;;;7.40;100.00;99611.81;5055776;28;20040;-45
2022/11/18 03:36:44;;;;;;;21.83;8.05;;;;;;;7.41;100.00;99610.97;5055284;28;20025;-46
2022/11/18 03:39:12;;;;;;;22.33;7.35;;;;;;;7.39;100.00;99610.06;5055977;28;20021;-47
2022/11/18 03:41:43;;;;;;;20.40;7.45;;;;;;;7.40;100.00;99616.94;5055724;28;20032;-46
2022/11/18 03:44:22;;;;;;;19.30;7.43;;;;;;;7.40;100.00;99619.50;5055002;28;20025;-46
2022/11/18 03:46:59;;;;;;;18.65;7.38;;;;;;;7.39;100.00;99620.34;5055291;28;20045;-47
2022/11/18 03:49:34;;;;;;;22.80;7.50;;;;;;;7.39;100.00;99625.47;5054818;28;20440;-45
2022/11/18 03:52:09;;;;;;;31.92;7.82;;;;;;;7.37;100.00;99637.34;5055411;28;20276;-44
2022/11/18 03:54:37;;;;;;;25.10;8.32;;;;;;;7.35;100.00;99633.91;5055529;28;20522;-46
2022/11/18 03:57:10;;;;;;;21.27;7.97;;;;;;;7.33;100.00;99640.69;5054142;28;20068;-44
2022/11/18 03:59:51;;;;;;;20.45;7.20;;;;;;;7.34;100.00;99639.88;5055586;28;20025;-45
2022/11/18 04:02:20;;;;;;;18.00;7.72;;;;;;;7.30;100.00;99646.59;5055535;28;20067;-45
2022/11/18 04:04:48;;;;;;;21.52;7.88;;;;;;;7.30;100.00;99650.88;5054285;28;20104;-44
2022/11/18 04:07:25;;;;;;;23.42;8.15;;;;;;;7.29;100.00;99652.56;5055312;28;20028;-46
2022/11/18 04:09:57;;;;;;;26.05;8.45;;;;;;;7.30;100.00;99650.88;5055194;28;20056;-45
2022/11/18 04:12:26;;;;;;;20.27;8.30;;;;;;;7.27;100.00;99658.47;5054513;28;20056;-46
2022/11/18 04:14:54;;;;;;;21.65;7.97;;;;;;;7.28;100.00;99657.66;5054921;28;20025;-46
2022/11/18 04:17:22;;;;;;;24.55;8.27;;;;;;;7.25;100.00;99671.25;5055035;28;20021;-46
2022/11/18 04:19:48;;;;;;;19.98;7.90;;;;;;;7.22;100.00;99658.38;5054745;28;20438;-44
2022/11/18 04:22:13;;;;;;;25.52;7.68;;;;;;;7.19;100.00;99664.31;5054985;28;20461;-46
2022/11/18 04:24:39;;;;;;;23.92;8.65;;;;;;;7.17;100.00;99675.34;5054152;28;20079;-44
2022/11/18 04:27:05;;;;;;;24.75;8.88;;;;;;;7.17;100.00;99673.63;5054650;28;20028;-46
2022/11/18 04:29:32;;;;;;;23.00;8.38;;;;;;;7.10;100.00;99679.44;5054996;28;20028;-47
2022/11/18 04:31:58;;;;;;;22.58;8.25;;;;;;;7.06;100.00;99680.19;5053754;28;20029;-45
2022/11/18 04:34:23;;;;;;;21.73;8.68;;;;;;;7.05;100.00;99683.56;5054768;28;20028;-46
2022/11/18 04:36:49;;;;;;;21.52;8.48;;;;;;;7.05;100.00;99676.78;5054256;28;20025;-46
2022/11/18 04:39:14;;;;;;;23.75;8.80;;;;;;;7.03;100.00;99680.13;5054131;28;20032;-45
2022/11/18 04:41:54;;;;;;;24.05;8.73;;;;;;;6.99;100.00;99691.13;5054546;28;20028;-47
2022/11/18 04:44:20;;;;;;;21.10;8.65;;;;;;;6.96;100.00;99691.03;5054800;28;20111;-42
2022/11/18 04:46:45;;;;;;;23.38;8.98;;;;;;;6.88;100.00;99693.41;5053504;28;20028;-45
2022/11/18 04:49:13;;;;;;;23.73;10.48;;;;;;;6.87;100.00;99696.81;5054432;28;20438;-43
2022/11/18 04:51:42;;;;;;;32.00;9.85;;;;;;;6.79;100.00;99694.03;5054608;28;20033;-46
2022/11/18 04:54:08;;;;;;;29.00;9.75;;;;;;;6.75;100.00;99697.34;5053433;28;20542;-44
2022/11/18 04:56:33;;;;;;;24.65;9.45;;;;;;;6.72;100.00;99697.25;5054643;28;20400;-46
2022/11/18 04:58:59;;;;;;;26.70;10.35;;;;;;;6.71;100.00;99700.63;5053830;28;20535;-46
2022/11/18 05:01:26;;;;;;;30.38;10.50;;;;;;;6.66;100.00;99703.09;5053406;28;20025;-46
2022/11/18 05:03:52;;;;;;;29.02;10.75;;;;;;;6.66;100.00;99707.34;5054465;28;20460;-46
2022/11/18 05:06:17;;;;;;;30.55;10.75;;;;;;;6.61;100.00;99704.66;5054949;28;20021;-44
2022/11/18 05:08:42;;;;;;;29.10;10.63;;;;;;;6.57;100.00;99713.94;5054195;28;20036;-43
2022/11/18 05:13:52;;;;;;;35.83;11.20;;;;;;;6.47;100.00;99719.63;5053066;28;20040;-47
2022/11/18 05:16:18;;;;;;;31.63;11.05;;;;;;;6.42;100.00;99722.06;5054044;28;20021;-46
2022/11/18 05:18:43;;;;;;;29.88;10.30;;;;;;;6.36;100.00;99724.44;5054135;28;20029;-46
2022/11/18 05:21:08;;;;;;;31.08;10.70;;;;;;;6.33;100.00;99720.94;5052915;28;20498;-45
2022/11/18 05:23:33;;;;;;;36.53;11.90;;;;;;;6.34;100.00;99732.91;5053974;28;20128;-46
2022/11/18 05:26:06;;;;;;;35.92;11.07;;;;;;;6.32;100.00;99727.75;5053574;28;20071;-46
2022/11/18 05:28:32;;;;;;;34.58;11.90;;;;;;;6.24;100.00;99730.06;5052970;28;20071;-45
2022/11/18 05:30:57;;;;;;;27.45;11.13;;;;;;;6.19;100.00;99736.75;5053328;28;20032;-45
2022/11/18 05:33:23;;;;;;;29.75;11.02;;;;;;;6.13;100.00;99741.69;5053548;28;20479;-45
2022/11/18 05:35:49;;;;;;;29.13;11.30;;;;;;;6.13;100.00;99745.94;5052963;28;20036;-46
2022/11/18 05:38:14;;;;;;;32.15;11.43;;;;;;;6.06;100.00;99750.00;5053112;28;20428;-44
2022/11/18 05:40:41;;;;;;;25.90;12.15;;;;;;;6.05;100.00;99748.28;5053505;28;20028;-46
2022/11/18 05:43:11;;;;;;;34.15;11.73;;;;;;;6.04;100.00;99757.66;5052437;28;20029;-46
2022/11/18 05:45:42;;;;;;;44.47;11.63;;;;;;;5.99;100.00;99758.31;5053694;28;20025;-46
2022/11/18 05:48:08;;;;;;;27.38;12.38;;;;;;;5.97;100.00;99755.69;5053232;28;20204;-45
2022/11/18 05:50:36;;;;;;;34.13;12.95;;;;;;;6.01;100.00;99760.09;5052678;28;20118;-43
2022/11/18 05:53:03;;;;;;;37.22;12.82;;;;;;;5.98;100.00;99766.75;5052982;28;20031;-46
2022/11/18 05:55:34;;;;;;;35.72;13.20;;;;;;;5.99;100.00;99768.53;5053195;28;20079;-45
2022/11/18 05:57:59;;;;;;;28.27;11.65;;;;;;;5.92;100.00;99768.31;5051892;28;20068;-43
2022/11/18 06:00:24;;;;;;;23.70;12.35;;;;;;;5.95;100.00;99772.66;5053285;28;20456;-46
2022/11/18 06:02:52;;;;;;;31.80;14.45;;;;;;;5.93;100.00;99771.75;5052841;28;20037;-46
2022/11/18 06:05:19;;;;;;;;;;;;;;;5.96;100.00;99779.50;5053575;28;20032;-44
2022/11/18 06:07:44;;;;;;;33.80;13.70;;;;;;;5.94;100.00;99778.59;5053125;28;19919;-44
2022/11/18 06:10:19;;;;;;;34.17;14.32;;;;;;;5.89;100.00;99787.81;5051931;28;20462;-47
2022/11/18 06:12:49;;;;;;;36.25;14.95;;;;;;;5.86;100.00;99787.72;5053221;28;20120;-43
2022/11/18 06:15:21;;;;;;;28.10;13.43;;;;;;;5.85;100.00;99786.84;5051993;28;20115;-46
2022/11/18 06:17:50;;;;;;;28.85;13.38;;;;;;;5.90;100.00;99789.53;5052216;28;20075;-44
2022/11/18 06:20:19;;;;;;;33.25;14.07;;;;;;;5.82;100.00;99804.63;5052583;28;20452;-43
2022/11/18 06:22:46;;;;;;;30.58;14.02;;;;;;;5.84;100.00;99805.56;5052787;28;20029;-43
2022/11/18 06:25:12;;;;;;;31.43;14.20;;;;;;;5.83;100.00;99814.06;5051534;28;20380;-46
2022/11/18 06:27:37;;;;;;;35.60;14.80;;;;;;;5.84;100.00;99820.91;5053004;28;20280;-42
2022/11/18 06:30:03;;;;;;;31.10;13.38;;;;;;;5.80;100.00;99821.63;5052666;28;20033;-45
2022/11/18 06:32:28;;;;;;;30.77;14.02;;;;;;;5.76;100.00;99823.22;5052173;28;20036;-47
2022/11/18 06:34:54;;;;;;;33.85;13.80;;;;;;;5.76;100.00;99822.38;5052554;28;20032;-48
2022/11/18 06:37:19;;;;;;;33.50;15.00;;;;;;;5.75;100.00;99823.19;5052661;28;20029;-44
2022/11/18 06:39:45;;;;;;;27.08;14.20;;;;;;;5.77;100.00;99824.97;5052224;28;20036;-45
2022/11/18 06:43:37;;;;;;;33.47;14.95;;;;;;;5.75;100.00;99828.28;5052510;28;20045;-46
2022/11/18 06:44:56;;;;;;;30.17;14.48;;;;;;;5.72;100.00;99829.06;5052228;28;20035;-46
2022/11/18 06:47:21;;;;;;;31.08;15.10;;;;;;;5.76;100.00;99833.44;5051758;28;20033;-48
2022/11/18 06:49:46;;;;;;;30.50;15.35;;;;;;;5.75;100.00;99829.16;5052489;28;20526;-49
2022/11/18 06:52:11;;;;;;;42.20;16.13;;;;;;;5.74;100.00;99839.31;5051330;28;20036;-48
2022/11/18 06:54:37;;;;;;;33.83;14.93;;;;;;;5.74;100.00;99842.75;5052686;28;20044;-44
2022/11/18 06:57:02;;;;;;;43.03;16.52;;;;;;;5.74;100.00;99854.66;5051836;28;20024;-45
2022/11/18 06:59:27;;;;;;;31.67;16.52;;;;;;;5.74;100.00;99855.53;5051811;28;20025;-44
2022/11/18 07:01:53;;;;;;;35.22;15.30;;;;;;;5.70;100.00;99856.25;5052046;28;20424;-44
2022/11/18 07:04:18;;;;;;;50.13;17.40;;;;;;;5.73;100.00;99865.72;5052511;28;20095;-47
2022/11/18 07:06:43;;;;;;;41.08;16.35;;;;;;;5.75;100.00;99866.66;5051522;28;20104;-45
2022/11/18 07:09:08;;;;;;;38.90;16.55;;;;;;;5.74;100.00;99865.75;5052273;28;20025;-45
2022/11/18 07:11:34;;;;;;;38.30;16.13;;;;;;;5.79;100.00;99868.47;5052276;28;20029;-46
2022/11/18 07:14:00;;;;;;;33.47;15.40;;;;;;;5.79;100.00;99876.16;5051293;28;20044;-47
2022/11/18 07:16:26;;;;;;;35.03;16.50;;;;;;;5.80;100.00;99884.66;5052309;28;20025;-46
2022/11/18 07:18:52;;;;;;;37.75;15.77;;;;;;;5.78;100.00;99884.63;5052081;28;20063;-43
2022/11/18 07:21:23;;;;;;;35.25;15.43;;;;;;;5.79;100.00;99888.94;5051197;28;20376;-46
2022/11/18 07:23:49;;;;;;;29.50;15.10;;;;;;;5.76;100.00;99881.16;5052505;28;20108;-46
2022/11/18 07:26:15;;;;;;;39.45;16.20;;;;;;;5.79;100.00;99896.59;5053991;28;20112;-46
2022/11/18 07:28:41;;;;;;;34.42;15.55;;;;;;;5.79;100.00;99899.16;5055283;28;20025;-46
2022/11/18 07:31:11;;;;;;;38.03;16.05;;;;;;;5.76;100.00;99902.47;5055597;28;20053;-45
2022/11/18 07:33:38;;;;;;;39.20;15.93;;;;;;;5.78;100.00;99902.53;5055690;28;20029;-46
2022/11/18 07:36:05;;;;;;;54.03;15.55;;;;;;;5.77;100.00;99905.91;5054716;28;20465;-45
2022/11/18 07:38:31;;;;;;;33.70;16.38;;;;;;;5.80;100.00;99910.25;5055933;28;20032;-42
2022/11/18 07:41:08;;;;;;;32.58;15.45;;;;;;;5.81;100.00;99923.09;5055439;28;20035;-43
2022/11/18 07:43:35;;;;;;;29.52;16.00;;;;;;;5.82;100.00;99918.84;5055041;28;20036;-46
2022/11/18 07:46:14;;;;;;;31.08;14.55;;;;;;;5.82;100.00;99918.84;5055407;28;20024;-47
2022/11/18 07:48:40;;;;;;;30.35;15.38;;;;;;;5.78;100.00;99920.44;5054902;28;20033;-44
2022/11/18 07:51:06;;;;;;;32.78;14.27;;;;;;;5.80;100.00;99925.59;5055507;28;20029;-44
2022/11/18 07:53:32;;;;;;;32.20;15.52;;;;;;;5.80;100.00;99929.03;5055783;28;20082;-46
2022/11/18 07:55:58;;;;;;;30.83;15.40;;;;;;;5.80;100.00;99931.59;5054466;28;20064;-47
2022/11/18 07:58:23;;;;;;;29.38;15.10;;;;;;;5.78;100.00;99933.22;5055331;28;20064;-46
2022/11/18 08:00:48;;;;;;;33.55;15.50;;;;;;;5.81;100.00;99935.88;5055237;28;20541;-42
2022/11/18 08:03:14;;;;;;;29.08;14.20;;;;;;;5.84;100.00;99937.69;5054510;28;20025;-44
2022/11/18 08:05:39;;;;;;;34.90;16.05;;;;;;;5.89;100.00;99946.38;5055242;28;20025;-45
2022/11/18 08:08:04;;;;;;;34.72;14.90;;;;;;;5.90;100.00;99948.97;5055160;28;20104;-47
2022/11/18 08:10:30;;;;;;;33.15;14.90;;;;;;;5.96;100.00;99944.88;5054587;28;20036;-46
2022/11/18 08:12:56;;;;;;;33.92;15.27;;;;;;;5.99;100.00;99957.81;5054936;28;20021;-47
2022/11/18 08:15:21;;;;;;;30.27;14.63;;;;;;;6.01;100.00;99948.50;5055086;28;20036;-45
2022/11/18 08:17:47;;;;;;;32.55;13.85;;;;;;;6.06;100.00;99952.94;5054534;28;20496;-47
2022/11/18 08:20:12;;;;;;;37.42;14.65;;;;;;;6.12;100.00;99965.09;5054898;28;20357;-46
2022/11/18 08:22:38;;;;;;;32.28;14.00;;;;;;;6.20;100.00;99966.19;5055121;28;20120;-46
2022/11/18 08:25:03;;;;;;;40.53;14.13;;;;;;;6.28;100.00;99968.16;5054041;28;20020;-46
2022/11/18 08:27:31;;;;;;;32.38;13.25;;;;;;;6.25;100.00;99972.34;5054892;28;20100;-44
2022/11/18 08:29:56;;;;;;;31.30;13.80;;;;;;;6.26;100.00;99973.19;5054485;28;20021;-47
2022/11/18 08:32:21;;;;;;;26.55;12.85;;;;;;;6.23;100.00;99976.53;5054219;28;20052;-47
2022/11/18 08:34:47;;;;;;;29.40;13.88;;;;;;;6.22;100.00;99969.69;5054749;28;20035;-47
2022/11/18 08:37:12;;;;;;;35.17;13.98;;;;;;;6.22;100.00;99987.59;5053748;28;20053;-47
2022/11/18 08:39:37;;;;;;;32.70;14.63;;;;;;;6.22;100.00;99982.50;5053877;28;20021;-43
2022/11/18 08:42:03;;;;;;;36.72;13.38;;;;;;;6.28;100.00;99988.63;5054379;28;20041;-46
2022/11/18 08:44:32;;;;;;;35.58;14.75;;;;;;;6.30;100.00;99980.19;5054537;28;20123;-46
2022/11/18 08:46:57;;;;;;;34.22;12.88;;;;;;;6.32;100.00;99983.66;5053656;28;20029;-44
2022/11/18 08:49:22;;;;;;;35.80;14.38;;;;;;;6.38;100.00;99983.00;5054649;28;20094;-46
2022/11/18 08:51:48;;;;;;;30.85;14.18;;;;;;;6.40;100.00;99986.44;5053714;28;20116;-47
2022/11/18 08:54:13;;;;;;;33.58;14.38;;;;;;;6.44;100.00;99985.72;5054117;28;20025;-46
2022/11/18 08:56:39;;;;;;;31.10;13.40;;;;;;;6.47;100.00;99993.53;5054617;28;20025;-46
2022/11/18 08:59:04;;;;;;;34.42;14.32;;;;;;;6.47;100.00;99987.50;5053234;28;20132;-47
2022/11/18 09:01:29;;;;;;;34.80;14.82;;;;;;;6.49;100.00;99994.44;5054155;28;20025;-45
2022/11/18 09:03:56;;;;;;;35.00;14.25;;;;;;;6.51;100.00;99992.78;5054008;28;20021;-46
2022/11/18 09:06:23;;;;;;;31.53;15.27;;;;;;;6.52;100.00;99991.97;5053523;28;20044;-49
2022/11/18 09:08:49;;;;;;;45.55;14.93;;;;;;;6.56;100.00;99998.94;5054146;28;20384;-47
2022/11/18 09:11:16;;;;;;;36.00;15.23;;;;;;;6.63;100.00;100005.13;5053943;28;20032;-44
2022/11/18 09:13:42;;;;;;;;;;;;;;;6.70;100.00;100003.63;5053711;28;20476;-46
2022/11/18 09:16:08;;;;;;;33.67;15.50;;;;;;;6.73;100.00;100001.16;5053926;28;20048;-45
2022/11/18 09:18:33;;;;;;;44.20;15.40;;;;;;;6.79;100.00;100011.59;5054115;28;20405;-46
2022/11/18 09:21:06;;;;;;;32.42;15.13;;;;;;;6.91;100.00;100016.25;5052811;28;20112;-47
2022/11/18 09:23:33;;;;;;;39.60;15.27;;;;;;;7.05;100.00;100014.06;5054156;28;20083;-46
2022/11/18 09:26:10;;;;;;;38.58;17.35;;;;;;;7.24;100.00;100025.75;5053617;28;20075;-46
2022/11/18 09:28:36;;;;;;;34.53;16.02;;;;;;;7.42;100.00;100020.31;5053297;28;20040;-45
2022/11/18 09:31:07;;;;;;;30.83;13.90;;;;;;;7.50;100.00;100023.97;5053662;28;20078;-47
2022/11/18 09:33:34;;;;;;;34.97;13.65;;;;;;;7.67;100.00;100027.00;5053796;28;20032;-44
2022/11/18 09:35:59;;;;;;;32.47;14.13;;;;;;;7.79;100.00;100025.63;5052636;28;20099;-47
2022/11/18 09:38:25;;;;;;;34.25;13.60;;;;;;;7.89;100.00;100036.16;5053561;28;20044;-46
2022/11/18 09:41:05;;;;;;;33.63;13.07;;;;;;;8.13;100.00;100036.78;5053202;28;20037;-45
2022/11/18 09:43:40;;;;;;;33.20;12.13;;;;;;;8.23;100.00;100039.63;5053693;28;20025;-46
2022/11/18 09:46:27;;;;;;;31.42;12.43;;;;;;;8.56;100.00;100051.63;5053264;28;20043;-47
2022/11/18 09:49:12;;;;;;;27.67;10.95;;;;;;;9.04;100.00;100052.75;5052360;28;20029;-47
2022/11/18 09:51:41;;;;;;;37.45;11.40;;;;;;;9.14;100.00;100066.69;5053606;28;20033;-48
2022/11/18 09:54:11;;;;;;;23.17;10.15;;;;;;;9.12;100.00;100064.94;5053168;28;20017;-46
2022/11/18 09:56:37;;;;;;;24.35;9.60;;;;;;;9.04;100.00;100068.19;5052563;28;20048;-47
2022/11/18 09:59:03;;;;;;;29.23;10.65;;;;;;;8.92;100.00;100067.03;5052792;28;20041;-47
2022/11/18 10:01:29;;;;;;;24.83;9.68;;;;;;;9.06;100.00;100075.91;5053043;28;20028;-47
2022/11/18 10:03:54;;;;;;;27.67;10.15;;;;;;;9.44;100.00;100078.50;5052096;28;20491;-48
2022/11/18 10:06:32;;;;;;;30.08;10.63;;;;;;;9.61;98.93;100088.28;5053284;28;20044;-46
2022/11/18 10:09:10;;;;;;;29.13;10.05;;;;;;;9.52;97.56;100081.25;5052809;28;20031;-48
2022/11/18 10:11:47;;;;;;;27.90;10.07;;;;;;;9.50;99.06;100088.94;5052997;28;20021;-47
2022/11/18 10:14:38;;;;;;;23.70;9.68;;;;;;;9.53;99.31;100086.41;5052669;28;20100;-46
2022/11/18 10:17:23;;;;;;;24.55;9.90;;;;;;;9.38;98.98;100081.78;5051785;28;20423;-44
2022/11/18 10:19:55;;;;;;;28.55;9.90;;;;;;;9.37;98.16;100089.47;5052848;28;20514;-47
2022/11/18 10:22:45;;;;;;;29.98;10.52;;;;;;;9.51;99.23;100085.50;5052911;28;20025;-47
2022/11/18 10:25:13;;;;;;;28.80;9.90;;;;;;;9.52;98.04;100094.09;5051937;28;20078;-47
2022/11/18 10:27:41;;;;;;;19.73;8.68;;;;;;;9.41;97.93;100090.41;5052885;28;20020;-47
2022/11/18 10:30:21;;;;;;;26.13;9.85;;;;;;;9.43;98.96;100097.34;5051788;28;20361;-45
2022/11/18 10:33:01;;;;;;;29.42;9.30;;;;;;;9.39;98.14;100098.09;5052603;28;20388;-48
2022/11/18 10:35:28;;;;;;;29.77;9.45;;;;;;;9.65;98.30;100102.94;5053600;28;20029;-46
2022/11/18 10:38:00;;;;;;;24.77;9.37;;;;;;;9.92;96.81;100104.38;5051798;28;20164;-46
2022/11/18 10:40:28;;;;;;;23.30;8.85;;;;;;;9.87;95.71;100104.25;5052918;28;20029;-46
2022/11/18 10:42:54;;;;;;;24.83;8.88;;;;;;;9.68;95.64;100103.88;5052448;28;20082;-46
2022/11/18 10:45:21;;;;;;;29.00;8.40;;;;;;;9.52;96.22;100110.38;5051888;28;20029;-46
2022/11/18 10:48:08;;;;;;;22.10;7.85;;;;;;;9.49;96.72;100112.91;5052672;28;20530;-48
2022/11/18 10:50:41;;;;;;;24.52;8.20;;;;;;;9.51;97.78;100115.50;5052919;28;20090;-45
2022/11/18 10:53:32;;;;;;;24.05;7.80;;;;;;;9.42;98.00;100105.88;5051587;28;20040;-47
2022/11/18 10:56:16;;;;;;;24.67;7.28;;;;;;;9.44;98.32;100117.06;5052445;28;20029;-46
2022/11/18 10:58:45;;;;;;;22.48;7.35;;;;;;;9.43;97.83;100114.47;5051473;28;20489;-44
2022/11/18 11:01:24;;;;;;;25.20;7.53;;;;;;;9.36;97.19;100111.75;5054206;28;20044;-47
2022/11/18 11:04:01;;;;;;;21.15;7.35;;;;;;;9.32;97.79;100124.50;5056599;28;20033;-46
2022/11/18 11:06:26;;;;;;;25.40;7.57;;;;;;;9.19;96.47;100119.09;5055749;28;20032;-47
2022/11/18 11:09:08;;;;;;;24.10;6.80;;;;;;;9.14;98.45;100123.25;5056333;28;20028;-46
2022/11/18 11:11:55;;;;;;;28.77;7.32;;;;;;;9.13;99.12;100129.22;5056506;28;20275;-47
2022/11/18 11:14:26;;;;;;;19.40;6.97;;;;;;;9.07;98.73;100123.94;5055538;28;20040;-45
2022/11/18 11:17:07;;;;;;;25.48;8.13;;;;;;;9.14;99.97;100127.50;5056190;28;20104;-46
2022/11/18 11:19:55;;;;;;;30.92;8.32;;;;;;;9.25;98.83;100127.78;5055369;28;20496;-47
2022/11/18 11:22:21;;;;;;;27.40;7.85;;;;;;;9.20;97.56;100131.09;5056241;28;20159;-46
2022/11/18 11:24:47;;;;;;;29.38;7.40;;;;;;;9.22;98.61;100123.44;5056117;28;20104;-47
2022/11/18 11:27:41;;;;;;;23.20;7.80;;;;;;;9.28;98.87;100130.41;5054950;28;20487;-47
2022/11/18 11:30:23;;;;;;;23.65;8.02;;;;;;;9.29;98.45;100135.59;5055731;28;20480;-47
2022/11/18 11:33:10;;;;;;;26.13;7.95;;;;;;;9.33;99.29;100139.09;5055976;28;20068;-46
2022/11/18 11:35:56;;;;;;;40.53;8.60;;;;;;;9.37;99.28;100133.19;5055073;28;20427;-47
2022/11/18 11:38:34;;;;;;;26.85;8.18;;;;;;;9.39;98.38;100139.25;5056056;28;20025;-44
2022/11/18 11:41:18;;;;;;;20.98;7.85;;;;;;;9.51;98.01;100141.22;5054713;28;20546;-46